CYPE

Peace River Airport

Peace River, Alberta, Canada
METAR CYPE 242120Z 29014G20KT 270V350 15SM VCSH BKN050CB BKN100 15/01 A2998 RMK CB5AC1 AC TR SLP171 DENSITY ALT 2200FT
Observed Flight Rules
Sep-24 @ 21:20 UTC (42 minutes ago) Visual Flight Rules
Wind Visibility Clouds
290° at 14 knots
 Gusting to 20 knots
15 miles
  • Broken at 5,000' AGL
  • Broken at 10,000' AGL
Temperatures Readings
Current 15°C / 59°F
Dewpoint 1°C / 34°F
Humidity 39%
Altimeter 29.98" Hg
Pressure 1017.1 hPa
Elevation 571
METAR CYPE 242120Z 29014G20KT 270V350 15SM VCSH BKN050CB BKN100 15/01 A2998 RMK CB5AC1 AC TR SLP171 DENSITY ALT 2200FT
Observed Flight Rules
Sep-24 @ 21:20 UTC
(42 minutes ago)
VFR
Wind Visibility
290° at 14 knots
 Gusting to 20 knots
15 miles
Clouds
  • Broken at 5,000' AGL
  • Broken at 10,000' AGL
Temperature Dewpoint
15°C / 59°F 1°C / 34°F
Humidity Altimeter Pressure
39% 29.98" Hg 1017.1 hPa